Time;durP1;ratioP1;P1;durP2;ratioP2;P2;SDS_P1;SDS_P2;PMS_P1;PMS_P2;Temp;Humidity;BMP_temperature;BMP_pressure;BME280_temperature;BME280_humidity;BME280_pressure;Samples;Min_cycle;Max_cycle;Signal;HPM_P1;HPM_P2
2023/11/20 00:00:42;;;;;;;20.48;8.23;;;;;;;-4.61;64.18;99790.31;5025635;28;20536;-36
2023/11/20 00:03:08;;;;;;;25.85;7.25;;;;;;;-4.56;64.29;99791.28;5022044;28;20029;-36
2023/11/20 00:05:34;;;;;;;23.23;8.65;;;;;;;-4.55;64.22;99786.25;5021991;28;20131;-37
2023/11/20 00:08:01;;;;;;;21.55;7.63;;;;;;;-4.49;63.92;99788.94;4994066;28;20817;-38
2023/11/20 00:10:27;;;;;;;18.88;8.60;;;;;;;-4.71;64.15;99735.94;5025243;28;20107;-42
2023/11/20 00:12:52;;;;;;;22.25;7.82;;;;;;;-4.43;63.60;99780.63;5026310;28;20056;-37
2023/11/20 00:15:18;;;;;;;19.25;7.65;;;;;;;-4.40;63.76;99774.00;5027085;28;20524;-38
2023/11/20 00:17:44;;;;;;;18.75;7.90;;;;;;;-4.56;63.70;99740.56;5028153;28;20045;-35
2023/11/20 00:20:11;;;;;;;16.65;8.73;;;;;;;-4.40;63.43;99763.84;5026426;28;20432;-36
2023/11/20 00:22:36;;;;;;;19.17;8.25;;;;;;;-4.35;63.24;99763.97;5021372;28;20037;-37
2023/11/20 00:25:03;;;;;;;19.77;8.50;;;;;;;-4.36;63.32;99762.22;5011230;28;20056;-43
2023/11/20 00:27:30;;;;;;;18.92;8.40;;;;;;;-4.35;63.14;99763.97;5012671;28;20041;-38
2023/11/20 00:29:56;;;;;;;22.75;8.25;;;;;;;-4.29;63.44;99751.41;5010688;28;20053;-36
2023/11/20 00:32:22;;;;;;;23.15;8.15;;;;;;;-4.22;63.17;99762.59;5021065;28;20180;-37
2023/11/20 00:34:48;;;;;;;23.05;9.18;;;;;;;-4.19;63.09;99758.47;5025773;28;20128;-36
2023/11/20 00:37:16;;;;;;;20.67;8.38;;;;;;;-4.28;63.20;99733.69;5014554;28;20544;-37
2023/11/20 00:39:42;;;;;;;17.30;8.23;;;;;;;-4.10;62.86;99750.22;5024971;28;20037;-37
2023/11/20 00:42:08;;;;;;;19.95;8.60;;;;;;;-4.09;62.89;99757.00;5041200;28;20504;-36
2023/11/20 00:44:34;;;;;;;20.77;8.80;;;;;;;-4.12;62.58;99762.84;5026481;28;20049;-37
2023/11/20 00:47:00;;;;;;;20.95;8.02;;;;;;;-4.14;63.05;99758.56;5017494;28;20513;-37
2023/11/20 00:49:27;;;;;;;22.65;9.05;;;;;;;-4.27;62.93;99734.56;5006091;28;20041;-37
2023/11/20 00:51:52;;;;;;;19.08;8.57;;;;;;;-4.13;62.69;99747.56;4994564;28;20111;-36
2023/11/20 00:54:18;;;;;;;21.42;7.32;;;;;;;-4.07;62.79;99756.22;5026169;28;20452;-37
2023/11/20 00:56:44;;;;;;;17.23;7.03;;;;;;;-4.10;62.49;99751.06;5025511;28;20042;-40
2023/11/20 00:59:10;;;;;;;19.60;7.70;;;;;;;-4.12;62.42;99746.75;5008081;28;20627;-36
2023/11/20 01:01:38;;;;;;;14.27;6.90;;;;;;;-4.18;62.26;99750.00;5027051;28;20465;-36
2023/11/20 01:04:05;;;;;;;17.00;7.22;;;;;;;-4.16;62.57;99742.44;5010410;28;20053;-37
2023/11/20 01:06:31;;;;;;;15.35;7.13;;;;;;;-4.17;62.58;99750.88;5042170;28;20111;-36
2023/11/20 01:08:57;;;;;;;18.60;7.47;;;;;;;-4.18;62.34;99739.84;5040469;28;20037;-37
2023/11/20 01:11:23;;;;;;;18.33;7.90;;;;;;;-4.14;62.54;99741.66;5026137;28;20052;-38
2023/11/20 01:13:50;;;;;;;16.27;7.68;;;;;;;-4.16;62.34;99738.22;5005411;28;20052;-37
2023/11/20 01:16:16;;;;;;;18.98;8.10;;;;;;;-4.09;62.03;99740.09;4993557;28;20540;-38
2023/11/20 01:18:42;;;;;;;18.35;7.47;;;;;;;-4.10;62.33;99747.66;5001628;28;20540;-38
2023/11/20 01:21:09;;;;;;;16.38;7.60;;;;;;;-4.05;62.55;99749.50;5024771;28;20041;-37
2023/11/20 01:23:35;;;;;;;19.60;7.60;;;;;;;-4.06;62.22;99736.75;5026092;28;20037;-36
2023/11/20 01:26:03;;;;;;;16.67;6.97;;;;;;;-4.08;61.97;99741.78;5026330;28;20049;-41
2023/11/20 01:28:29;;;;;;;17.02;8.02;;;;;;;-4.09;61.81;99747.72;5025099;28;20096;-36
2023/11/20 01:30:55;;;;;;;18.40;7.10;;;;;;;-4.27;61.94;99710.03;4992850;28;20037;-36
2023/11/20 01:33:21;;;;;;;15.52;6.72;;;;;;;-4.05;62.43;99741.03;5013104;28;20041;-36
2023/11/20 01:35:47;;;;;;;19.70;6.88;;;;;;;-4.08;62.14;99749.41;5026070;28;20037;-37
2023/11/20 01:38:16;;;;;;;15.80;6.50;;;;;;;-4.06;62.23;99744.38;5040563;28;20500;-38
2023/11/20 01:40:42;;;;;;;14.18;6.60;;;;;;;-4.09;61.82;99751.94;5026378;28;20180;-36
2023/11/20 01:43:10;;;;;;;17.65;7.10;;;;;;;-4.15;62.43;99760.25;5054783;28;20045;-35
2023/11/20 01:45:36;;;;;;;12.65;6.07;;;;;;;-4.15;62.11;99757.72;5010533;28;20046;-37
2023/11/20 01:48:02;;;;;;;19.35;6.18;;;;;;;-4.15;61.81;99760.25;5023490;28;20051;-36
2023/11/20 01:50:31;;;;;;;15.25;6.30;;;;;;;-4.15;61.95;99750.09;5003920;28;20052;-36
2023/11/20 01:52:57;;;;;;;14.77;7.35;;;;;;;-4.11;62.10;99748.47;5020090;28;20415;-36
2023/11/20 01:55:23;;;;;;;16.98;6.85;;;;;;;-4.12;61.92;99746.75;5021854;28;20068;-37
2023/11/20 01:57:50;;;;;;;13.00;6.72;;;;;;;-4.09;62.38;99751.94;5025122;28;20517;-36
2023/11/20 02:00:17;;;;;;;17.00;6.95;;;;;;;-4.29;62.37;99731.97;5007735;28;20042;-35
2023/11/20 02:02:43;;;;;;;17.33;6.93;;;;;;;-4.19;62.41;99747.44;5023181;28;20037;-37
2023/11/20 02:05:09;;;;;;;13.98;6.55;;;;;;;-4.54;62.64;99681.41;5023920;28;20479;-37
2023/11/20 02:07:36;;;;;;;14.85;6.75;;;;;;;-4.08;62.79;99743.50;5025841;28;20034;-36
2023/11/20 02:10:07;;;;;;;14.32;6.70;;;;;;;-4.06;62.74;99740.16;5038472;28;20038;-37
2023/11/20 02:12:36;;;;;;;15.07;6.78;;;;;;;-4.07;62.53;99742.66;5025674;28;20037;-36
2023/11/20 02:15:05;;;;;;;14.80;7.32;;;;;;;-4.22;63.03;99706.75;4992565;28;20050;-37
2023/11/20 02:17:37;;;;;;;17.30;6.88;;;;;;;-4.01;62.51;99738.59;5007912;28;20536;-37
2023/11/20 02:20:04;;;;;;;16.00;6.07;;;;;;;-4.11;63.01;99739.19;5023364;28;20526;-36
2023/11/20 02:22:30;;;;;;;15.13;7.18;;;;;;;-4.15;63.20;99737.41;5040205;28;20037;-37
2023/11/20 02:24:56;;;;;;;13.82;6.85;;;;;;;-4.11;63.61;99744.28;5009119;28;20049;-38
2023/11/20 02:27:34;;;;;;;16.15;7.13;;;;;;;-4.10;63.53;99743.47;5040147;28;20037;-36
2023/11/20 02:30:05;;;;;;;17.98;7.43;;;;;;;-4.08;63.56;99746.88;4998398;28;20037;-37
2023/11/20 02:32:33;;;;;;;18.23;7.55;;;;;;;-4.28;63.36;99710.84;5020454;28;20041;-37
2023/11/20 02:35:00;;;;;;;16.65;6.63;;;;;;;-4.01;63.35;99753.81;5028001;28;20046;-36
2023/11/20 02:37:29;;;;;;;17.02;8.07;;;;;;;-4.25;63.42;99712.63;5008596;28;20183;-37
2023/11/20 02:39:54;;;;;;;20.23;7.05;;;;;;;-4.20;63.41;99728.81;5027880;28;20102;-38
2023/11/20 02:42:20;;;;;;;14.52;7.13;;;;;;;-4.01;63.81;99750.44;5028433;28;20033;-37
2023/11/20 02:44:48;;;;;;;10.98;5.50;;;;;;;-4.09;63.25;99741.78;5019789;28;20049;-36
2023/11/20 02:47:14;;;;;;;13.65;5.80;;;;;;;-4.01;63.52;99745.34;5015833;28;20107;-36
2023/11/20 02:49:40;;;;;;;15.20;6.07;;;;;;;-4.05;62.96;99753.72;5028466;28;20049;-38
2023/11/20 02:52:06;;;;;;;11.90;5.93;;;;;;;-4.29;63.43;99716.75;5028125;28;20044;-37
2023/11/20 02:54:33;;;;;;;12.95;6.25;;;;;;;-4.09;62.90;99764.63;5043428;28;20041;-37
2023/11/20 02:57:00;;;;;;;14.32;6.18;;;;;;;-4.06;62.85;99752.00;5026780;28;20044;-37
2023/11/20 02:59:29;;;;;;;11.85;5.25;;;;;;;-4.05;62.84;99756.25;5024139;28;20045;-37
2023/11/20 03:01:55;;;;;;;13.02;5.38;;;;;;;-4.09;62.75;99745.19;5027674;28;20114;-36
2023/11/20 03:04:22;;;;;;;12.05;5.35;;;;;;;-4.06;62.45;99746.91;5028847;28;20636;-37
2023/11/20 03:06:48;;;;;;;16.25;6.07;;;;;;;-4.10;62.43;99743.47;4997651;28;20041;-37
2023/11/20 03:09:14;;;;;;;10.70;5.97;;;;;;;-4.09;62.34;99746.84;5013870;28;20088;-35
2023/11/20 03:11:40;;;;;;;12.25;5.85;;;;;;;-4.08;62.60;99746.88;5013325;28;20046;-35
2023/11/20 03:14:06;;;;;;;12.73;5.97;;;;;;;-4.05;62.49;99746.97;4995019;28;20050;-37
2023/11/20 03:16:32;;;;;;;10.68;4.82;;;;;;;-4.03;62.19;99763.06;4995595;28;20037;-37
2023/11/20 03:18:58;;;;;;;13.32;5.72;;;;;;;-4.01;62.33;99763.97;5026888;28;20501;-36
2023/11/20 03:21:26;;;;;;;11.15;5.55;;;;;;;-4.00;61.79;99758.09;5027143;28;20037;-35
2023/11/20 03:23:52;;;;;;;11.20;5.50;;;;;;;-4.08;62.23;99759.56;5009686;28;20399;-37
2023/11/20 03:26:25;;;;;;;10.63;4.55;;;;;;;-4.06;62.41;99769.75;5028891;28;20050;-37
2023/11/20 03:28:51;;;;;;;10.77;4.30;;;;;;;-4.11;62.11;99766.25;5026422;28;20045;-37
2023/11/20 03:31:19;;;;;;;10.40;4.65;;;;;;;-4.11;61.88;99774.72;5005622;28;20132;-36
2023/11/20 03:33:46;;;;;;;8.68;4.25;;;;;;;-4.35;61.73;99739.44;5027636;28;20041;-36
2023/11/20 03:36:14;;;;;;;11.57;4.20;;;;;;;-4.21;62.01;99769.38;5028007;28;20033;-37
2023/11/20 03:38:44;;;;;;;10.60;4.18;;;;;;;-4.19;61.79;99765.22;5027483;28;20068;-37
2023/11/20 03:41:10;;;;;;;9.88;4.05;;;;;;;-4.40;61.94;99730.88;5008750;28;20498;-37
2023/11/20 03:43:36;;;;;;;10.00;3.80;;;;;;;-4.21;61.75;99757.56;5022593;28;20040;-35
2023/11/20 03:46:02;;;;;;;8.35;4.45;;;;;;;-4.20;62.24;99754.19;5031971;28;20429;-37
2023/11/20 03:48:28;;;;;;;11.73;4.28;;;;;;;-4.24;62.32;99760.03;5010283;28;20510;-37
2023/11/20 03:50:54;;;;;;;8.27;4.60;;;;;;;-4.28;62.49;99743.84;5059890;28;20045;-37
2023/11/20 03:53:20;;;;;;;7.13;3.65;;;;;;;-4.47;62.38;99705.28;5016748;28;20044;-37
2023/11/20 03:55:46;;;;;;;12.75;3.97;;;;;;;-4.38;62.54;99726.66;5056224;28;20041;-36
2023/11/20 03:58:13;;;;;;;9.55;4.00;;;;;;;-4.52;62.45;99702.63;5006839;28;20053;-37
2023/11/20 04:00:39;;;;;;;14.32;5.40;;;;;;;-4.32;62.24;99729.38;5011410;28;20045;-37
2023/11/20 04:03:05;;;;;;;11.73;4.07;;;;;;;-4.28;62.52;99723.53;5024121;28;20088;-37
2023/11/20 04:05:31;;;;;;;8.80;4.57;;;;;;;-4.27;62.57;99724.41;5025792;28;20496;-36
2023/11/20 04:07:57;;;;;;;9.50;4.20;;;;;;;-4.32;62.25;99731.91;5026209;28;20045;-35
2023/11/20 04:10:22;;;;;;;10.48;4.20;;;;;;;-4.26;62.26;99738.81;5025536;28;20049;-36
2023/11/20 04:12:48;;;;;;;9.90;4.45;;;;;;;-4.25;62.22;99737.13;5026586;28;20061;-37
2023/11/20 04:15:14;;;;;;;11.55;4.22;;;;;;;-4.24;62.14;99732.09;5024831;28;20427;-37
2023/11/20 04:17:40;;;;;;;9.18;4.50;;;;;;;-4.23;61.48;99736.34;5028074;28;20041;-37
2023/11/20 04:20:07;;;;;;;10.07;4.00;;;;;;;-4.22;62.02;99724.50;5025964;28;20182;-37
2023/11/20 04:22:33;;;;;;;8.75;4.20;;;;;;;-4.39;61.46;99688.56;5015193;28;20050;-38
2023/11/20 04:25:00;;;;;;;9.40;4.32;;;;;;;-4.14;61.87;99716.28;5010506;28;20049;-37
2023/11/20 04:27:28;;;;;;;7.68;3.67;;;;;;;-4.16;61.50;99717.91;5026738;28;20144;-38
2023/11/20 04:29:55;;;;;;;10.27;4.03;;;;;;;-4.17;61.93;99700.97;5024171;28;20052;-36
2023/11/20 04:32:21;;;;;;;8.82;4.40;;;;;;;-4.21;61.42;99711.00;5002399;28;20042;-37
2023/11/20 04:34:47;;;;;;;8.30;3.97;;;;;;;-4.20;61.64;99705.13;5026009;28;20037;-37
2023/11/20 04:37:14;;;;;;;6.82;3.78;;;;;;;-4.28;61.33;99694.75;5007788;28;20533;-37
2023/11/20 04:39:40;;;;;;;9.32;4.18;;;;;;;-4.29;61.54;99686.28;5026095;28;20421;-37
2023/11/20 04:42:06;;;;;;;7.03;3.50;;;;;;;-4.37;61.29;99679.31;5009493;28;20047;-37
2023/11/20 04:44:32;;;;;;;7.95;3.97;;;;;;;-4.44;61.34;99675.75;5024546;28;20814;-37
2023/11/20 04:46:58;;;;;;;7.47;4.20;;;;;;;-4.55;61.32;99649.25;5018927;28;20045;-36
2023/11/20 04:49:24;;;;;;;8.57;4.45;;;;;;;-4.35;61.08;99662.47;5028361;28;20536;-39
2023/11/20 04:51:52;;;;;;;8.30;3.92;;;;;;;-4.29;61.11;99670.19;5017618;28;20048;-38
2023/11/20 04:54:18;;;;;;;8.05;3.67;;;;;;;-4.21;61.01;99660.25;5024277;28;20509;-35
2023/11/20 04:56:45;;;;;;;10.15;4.75;;;;;;;-4.24;61.20;99650.91;5026296;28;20049;-37
2023/11/20 04:59:11;;;;;;;10.60;4.13;;;;;;;-4.23;61.03;99656.81;5007692;28;20042;-37
2023/11/20 05:01:36;;;;;;;6.47;3.83;;;;;;;-4.43;60.69;99623.34;5026254;28;20084;-38
2023/11/20 05:04:03;;;;;;;11.88;4.80;;;;;;;-4.28;60.61;99661.78;5023655;28;20029;-38
2023/11/20 05:06:30;;;;;;;10.07;3.72;;;;;;;-4.28;61.16;99657.56;5020983;28;20052;-37
2023/11/20 05:08:56;;;;;;;8.07;4.13;;;;;;;-4.29;61.06;99645.69;5049495;28;20034;-40
2023/11/20 05:11:23;;;;;;;11.68;4.45;;;;;;;-4.26;60.68;99650.00;5015979;28;20476;-36
2023/11/20 05:13:50;;;;;;;10.52;4.40;;;;;;;-4.25;60.39;99644.09;4998450;28;20586;-37
2023/11/20 05:16:16;;;;;;;14.43;4.15;;;;;;;-4.19;60.39;99649.31;5029245;28;20037;-38
2023/11/20 05:18:43;;;;;;;13.82;4.63;;;;;;;-4.22;60.02;99654.31;5034198;28;20037;-38
2023/11/20 05:21:09;;;;;;;8.70;4.32;;;;;;;-4.40;60.57;99613.28;5035028;28;20089;-39
2023/11/20 05:23:35;;;;;;;9.68;4.25;;;;;;;-4.17;60.05;99645.13;5036017;28;20060;-37
2023/11/20 05:26:01;;;;;;;7.68;4.55;;;;;;;-4.18;60.39;99640.00;5034929;28;20509;-38
2023/11/20 05:28:26;;;;;;;10.13;4.85;;;;;;;-4.15;60.43;99642.63;5036382;28;20038;-38
2023/11/20 05:30:52;;;;;;;16.92;4.93;;;;;;;-4.13;60.72;99648.59;5016978;28;20037;-37
2023/11/20 05:33:18;;;;;;;8.60;4.22;;;;;;;-4.13;60.49;99663.81;5033284;28;20530;-37
2023/11/20 05:35:44;;;;;;;7.20;3.95;;;;;;;-4.38;60.46;99634.47;5036155;28;20040;-38
2023/11/20 05:38:10;;;;;;;10.45;4.80;;;;;;;-4.20;60.23;99662.84;5034479;28;20153;-38
2023/11/20 05:40:36;;;;;;;9.27;4.28;;;;;;;-4.31;60.25;99628.72;5035051;28;20037;-37
2023/11/20 05:43:02;;;;;;;9.93;4.25;;;;;;;-4.33;60.28;99631.22;5028265;28;20034;-37
2023/11/20 05:45:28;;;;;;;13.15;4.40;;;;;;;-4.32;60.38;99614.31;5021725;28;20183;-36
2023/11/20 05:47:55;;;;;;;14.57;4.78;;;;;;;-4.11;60.56;99640.19;5017515;28;20096;-37
2023/11/20 05:50:21;;;;;;;12.65;4.82;;;;;;;-4.08;59.93;99630.09;5054560;28;20075;-38
2023/11/20 05:52:47;;;;;;;10.90;3.88;;;;;;;-4.04;60.13;99628.50;5023399;28;20511;-37
2023/11/20 05:55:12;;;;;;;8.35;4.30;;;;;;;-3.99;60.40;99627.78;5002944;28;20041;-38
2023/11/20 05:57:38;;;;;;;13.40;4.30;;;;;;;-3.97;60.65;99636.28;5018290;28;20061;-37
2023/11/20 06:00:07;;;;;;;11.15;4.18;;;;;;;-3.92;60.17;99639.78;5022154;28;20531;-37
2023/11/20 06:02:38;;;;;;;9.23;4.55;;;;;;;-3.91;60.35;99630.47;5002283;28;20041;-38
2023/11/20 06:05:04;;;;;;;9.35;4.53;;;;;;;-3.92;60.15;99644.84;5018647;28;20051;-36
2023/11/20 06:07:31;;;;;;;11.60;4.40;;;;;;;-4.08;60.07;99614.88;5019422;28;20069;-37
2023/11/20 06:09:57;;;;;;;8.38;4.10;;;;;;;-3.87;60.54;99650.03;5022609;28;21373;-37
2023/11/20 06:12:23;;;;;;;8.02;4.20;;;;;;;-3.85;60.16;99638.25;4998838;28;20160;-37
2023/11/20 06:14:49;;;;;;;9.55;4.50;;;;;;;-3.80;60.73;99645.97;5028650;28;20771;-37
2023/11/20 06:17:15;;;;;;;13.50;4.70;;;;;;;-3.78;60.16;99646.88;5057511;28;20033;-38
2023/11/20 06:19:42;;;;;;;11.15;4.72;;;;;;;-3.76;60.53;99640.13;5028002;28;20128;-36
2023/11/20 06:22:08;;;;;;;13.65;4.45;;;;;;;-3.85;60.06;99625.53;5022633;28;21337;-38
2023/11/20 06:24:34;;;;;;;13.30;4.53;;;;;;;-3.76;60.07;99638.44;5016465;28;20053;-38
2023/11/20 06:27:00;;;;;;;11.27;4.03;;;;;;;-3.82;60.71;99633.22;5031574;28;20461;-38
2023/11/20 06:29:25;;;;;;;9.75;3.58;;;;;;;-3.84;60.16;99627.28;5011054;28;20377;-37
2023/11/20 06:31:51;;;;;;;9.82;4.38;;;;;;;-3.78;60.28;99627.41;5008755;28;20041;-36
2023/11/20 06:34:17;;;;;;;8.90;4.05;;;;;;;-3.72;60.83;99630.09;5030086;28;20068;-36
2023/11/20 06:36:43;;;;;;;8.60;4.15;;;;;;;-3.67;60.28;99623.41;5025507;28;20084;-37
2023/11/20 06:39:10;;;;;;;13.85;4.47;;;;;;;-3.61;60.01;99620.16;4993068;28;20510;-38
2023/11/20 06:41:37;;;;;;;9.90;3.72;;;;;;;-3.55;60.18;99625.34;5021469;28;20045;-38
2023/11/20 06:44:04;;;;;;;6.68;3.58;;;;;;;-3.49;59.91;99625.47;5022076;28;20490;-38
2023/11/20 06:46:30;;;;;;;10.23;4.13;;;;;;;-3.66;60.14;99592.09;5027944;28;20599;-37
2023/11/20 06:48:56;;;;;;;9.38;3.58;;;;;;;-3.49;59.69;99623.78;5024482;28;20037;-36
2023/11/20 06:51:22;;;;;;;7.15;3.92;;;;;;;-3.51;59.89;99622.06;5028684;28;20045;-38
2023/11/20 06:53:48;;;;;;;6.20;3.75;;;;;;;-3.51;60.30;99629.69;5024889;28;20037;-38
2023/11/20 06:56:18;;;;;;;11.80;4.20;;;;;;;-3.53;60.19;99621.16;5039965;28;20050;-37
2023/11/20 06:58:45;;;;;;;9.95;4.07;;;;;;;-3.57;60.12;99627.00;5024213;28;20034;-38
2023/11/20 07:01:12;;;;;;;12.75;4.88;;;;;;;-3.58;59.86;99618.53;5023656;28;20095;-38
2023/11/20 07:03:42;;;;;;;9.52;4.35;;;;;;;-3.60;60.28;99611.69;5039528;28;20085;-37
2023/11/20 07:06:14;;;;;;;8.57;4.22;;;;;;;-3.54;59.93;99622.84;5027724;28;20049;-37
2023/11/20 07:08:41;;;;;;;10.93;4.22;;;;;;;-3.55;59.99;99632.97;5027158;28;20114;-38
2023/11/20 07:11:07;;;;;;;23.27;4.32;;;;;;;-3.50;59.92;99629.69;5001479;28;20433;-37
2023/11/20 07:13:34;;;;;;;14.93;3.97;;;;;;;-3.45;60.15;99624.69;5025226;28;20034;-37
2023/11/20 07:16:01;;;;;;;11.65;4.13;;;;;;;-3.66;60.13;99566.69;5026107;28;20041;-38
2023/11/20 07:18:27;;;;;;;10.68;4.55;;;;;;;-3.55;60.13;99579.59;5020619;28;20280;-37
2023/11/20 07:20:54;;;;;;;9.88;4.38;;;;;;;-3.36;59.96;99606.25;5022018;28;20038;-37
2023/11/20 07:23:21;;;;;;;11.80;4.20;;;;;;;-3.38;60.28;99603.66;5024514;28;20044;-37
2023/11/20 07:25:48;;;;;;;8.57;4.38;;;;;;;-3.33;60.27;99611.38;5027873;28;20052;-44
2023/11/20 07:31:55;;;;;;;7.28;4.10;;;;;;;-3.57;60.49;99571.13;5020350;28;20045;-37
2023/11/20 07:34:21;;;;;;;8.95;4.03;;;;;;;-3.36;60.40;99585.91;5022040;28;20052;-38
2023/11/20 07:36:47;;;;;;;11.80;5.13;;;;;;;-3.29;60.16;99575.03;5021657;28;20106;-38
2023/11/20 07:39:13;;;;;;;10.68;4.38;;;;;;;-3.20;60.25;99576.09;5020804;28;20049;-37
2023/11/20 07:41:39;;;;;;;10.13;4.68;;;;;;;-3.31;60.09;99533.50;5024417;28;20050;-45
2023/11/20 07:44:07;;;;;;;9.65;4.18;;;;;;;-3.08;60.06;99568.66;5021882;28;20042;-38
2023/11/20 07:46:33;;;;;;;11.10;4.88;;;;;;;-3.06;59.85;99576.31;5023540;28;20051;-38
2023/11/20 07:48:59;;;;;;;7.13;3.72;;;;;;;-3.19;59.92;99559.97;5026297;28;20476;-37
2023/11/20 07:51:25;;;;;;;12.13;3.92;;;;;;;-3.07;60.03;99575.47;5028871;28;20033;-37
2023/11/20 07:53:51;;;;;;;7.90;3.75;;;;;;;-3.03;60.16;99574.69;5022514;28;20056;-36
2023/11/20 07:56:18;;;;;;;6.82;3.72;;;;;;;-3.01;59.82;99567.09;5028388;28;20041;-38
2023/11/20 07:58:43;;;;;;;10.25;4.43;;;;;;;-2.99;59.57;99562.91;5010716;28;20051;-38
2023/11/20 08:01:09;;;;;;;13.27;4.60;;;;;;;-3.12;59.95;99536.38;5025230;28;20049;-38
2023/11/20 08:03:35;;;;;;;8.25;3.97;;;;;;;-2.87;59.46;99567.31;5029018;28;20428;-38
2023/11/20 08:06:01;;;;;;;7.40;4.40;;;;;;;-2.92;59.78;99534.19;5014173;28;20082;-37
2023/11/20 08:08:27;;;;;;;11.38;4.93;;;;;;;-2.77;59.78;99543.75;5022969;28;20037;-37
2023/11/20 08:10:53;;;;;;;10.98;4.97;;;;;;;-2.61;59.44;99536.38;5030381;28;20733;-39
2023/11/20 08:13:21;;;;;;;10.70;4.45;;;;;;;-2.71;59.21;99515.88;5026437;28;20124;-39
2023/11/20 08:15:47;;;;;;;15.18;4.00;;;;;;;-2.54;59.21;99532.25;5020377;28;20045;-38
2023/11/20 08:18:12;;;;;;;9.40;4.13;;;;;;;-2.47;59.34;99535.75;5022963;28;20042;-38
2023/11/20 08:20:38;;;;;;;13.13;4.80;;;;;;;-2.45;59.21;99527.31;5007728;28;20045;-38
2023/11/20 08:23:04;;;;;;;20.25;5.45;;;;;;;-2.57;59.38;99504.22;5006582;28;20040;-36
2023/11/20 08:25:30;;;;;;;11.55;5.15;;;;;;;-2.69;59.44;99473.50;5010563;28;20050;-39
2023/11/20 08:27:56;;;;;;;12.85;5.72;;;;;;;-2.30;59.46;99530.06;5019405;28;20132;-38
2023/11/20 08:30:22;;;;;;;13.10;5.85;;;;;;;-2.23;59.12;99519.16;5013395;28;20038;-39
2023/11/20 08:32:48;;;;;;;20.80;6.20;;;;;;;-2.22;59.18;99510.69;5008550;28;20433;-37
2023/11/20 08:35:14;;;;;;;13.23;5.90;;;;;;;-2.20;58.96;99509.00;5020510;28;20095;-37
2023/11/20 08:37:39;;;;;;;15.98;5.10;;;;;;;-2.21;58.91;99514.09;5020840;28;20041;-36
2023/11/20 08:40:08;;;;;;;12.70;4.82;;;;;;;-2.29;58.46;99513.97;4991195;28;20122;-36
2023/11/20 08:42:35;;;;;;;9.40;4.28;;;;;;;-2.35;58.55;99510.47;5017571;28;20037;-38
2023/11/20 08:45:01;;;;;;;9.93;4.72;;;;;;;-2.54;58.65;99486.44;5012531;28;20057;-38
2023/11/20 08:47:30;;;;;;;13.02;4.60;;;;;;;-2.34;58.59;99507.09;5011752;28;20056;-37
2023/11/20 08:49:56;;;;;;;7.32;4.22;;;;;;;-2.33;58.38;99508.81;5025393;28;20041;-38
2023/11/20 08:52:24;;;;;;;9.80;4.15;;;;;;;-2.32;58.27;99505.44;5025152;28;20037;-38
2023/11/20 08:54:50;;;;;;;12.48;4.22;;;;;;;-2.32;58.19;99503.75;5021117;28;20086;-39
2023/11/20 08:57:16;;;;;;;11.43;4.75;;;;;;;-2.32;58.32;99488.47;5007000;28;20041;-38
2023/11/20 08:59:42;;;;;;;10.32;4.63;;;;;;;-2.24;58.29;99502.16;5024411;28;20052;-39
2023/11/20 09:02:08;;;;;;;11.90;4.50;;;;;;;-2.28;58.22;99494.47;5021011;28;20045;-38
2023/11/20 09:04:34;;;;;;;11.65;5.53;;;;;;;-2.23;58.17;99505.56;4994096;28;21889;-38
2023/11/20 09:07:01;;;;;;;7.40;3.78;;;;;;;-2.40;58.17;99471.38;4999519;28;20212;-36
2023/11/20 09:09:27;;;;;;;10.38;4.60;;;;;;;-2.22;58.05;99502.19;5027935;28;20039;-38
2023/11/20 09:11:52;;;;;;;14.90;4.18;;;;;;;-2.15;58.15;99501.44;5032133;28;20500;-38
2023/11/20 09:14:18;;;;;;;12.60;4.68;;;;;;;-2.07;58.34;99493.88;5017122;28;20041;-38
2023/11/20 09:16:44;;;;;;;14.30;5.38;;;;;;;-2.02;58.32;99492.25;5017378;28;20052;-38
2023/11/20 09:19:11;;;;;;;11.38;4.93;;;;;;;-1.98;58.10;99494.00;5022993;28;20716;-37
2023/11/20 09:21:37;;;;;;;9.40;5.00;;;;;;;-2.15;58.01;99464.06;5023195;28;20460;-37
2023/11/20 09:24:04;;;;;;;8.23;4.60;;;;;;;-1.95;57.91;99478.75;5018443;28;20041;-38
2023/11/20 09:26:30;;;;;;;14.07;5.97;;;;;;;-1.85;58.34;99495.88;5007105;28;20054;-38
2023/11/20 09:28:56;;;;;;;12.30;4.75;;;;;;;-1.80;57.60;99491.69;5026952;28;20041;-38
2023/11/20 09:31:22;;;;;;;10.65;4.63;;;;;;;-1.80;58.00;99486.59;5022762;28;20038;-40
2023/11/20 09:33:50;;;;;;;13.57;4.95;;;;;;;-1.81;57.68;99479.78;5008607;28;20060;-44
2023/11/20 09:36:16;;;;;;;10.38;5.13;;;;;;;-1.79;57.74;99484.06;4993538;28;20052;-38
2023/11/20 09:38:43;;;;;;;9.82;4.55;;;;;;;-1.96;57.53;99459.22;4992269;28;20042;-38
2023/11/20 09:41:10;;;;;;;10.75;4.93;;;;;;;-1.76;57.64;99490.88;5029603;28;20132;-38
2023/11/20 09:43:37;;;;;;;12.48;4.47;;;;;;;-1.73;57.81;99485.84;5025709;28;20044;-39
2023/11/20 09:46:07;;;;;;;11.77;4.70;;;;;;;-1.67;57.80;99493.53;5005998;28;20105;-36
2023/11/20 09:48:36;;;;;;;14.45;4.30;;;;;;;-1.65;57.38;99499.50;5034328;28;20528;-36
2023/11/20 09:51:02;;;;;;;20.88;4.93;;;;;;;-1.65;57.54;99496.09;5023969;28;20509;-36
2023/11/20 09:53:35;;;;;;;9.05;3.60;;;;;;;-1.64;57.29;99496.13;5025699;28;20045;-37
2023/11/20 09:56:03;;;;;;;11.27;4.07;;;;;;;-1.66;57.37;99500.34;5010968;28;20042;-37
2023/11/20 09:58:36;;;;;;;11.10;3.92;;;;;;;-1.70;57.35;99496.06;5031012;28;20041;-38
2023/11/20 10:01:09;;;;;;;9.35;4.60;;;;;;;-1.68;57.36;99491.84;5028106;28;20084;-37
2023/11/20 10:03:40;;;;;;;11.80;4.32;;;;;;;-1.66;57.16;99489.28;5011856;28;20076;-37
2023/11/20 10:06:11;;;;;;;9.23;4.68;;;;;;;-1.65;57.22;99486.75;5026211;28;20064;-37
2023/11/20 10:08:40;;;;;;;12.57;5.78;;;;;;;-1.62;57.26;99483.41;5025061;28;20047;-37
2023/11/20 10:11:07;;;;;;;10.32;4.75;;;;;;;-1.86;57.31;99440.66;5025845;28;21361;-37
2023/11/20 10:13:34;;;;;;;14.75;4.35;;;;;;;-1.57;57.50;99482.59;5025392;28;20136;-38
2023/11/20 10:16:00;;;;;;;15.52;4.30;;;;;;;-1.84;56.88;99428.81;5025876;28;20092;-38
2023/11/20 10:18:26;;;;;;;11.43;4.13;;;;;;;-1.53;57.24;99479.25;5029898;28;20467;-38
2023/11/20 10:20:53;;;;;;;10.63;4.15;;;;;;;-1.55;57.00;99473.28;5025770;28;20123;-37
2023/11/20 10:23:20;;;;;;;12.07;5.00;;;;;;;-1.64;56.91;99449.41;5052787;28;20038;-37
2023/11/20 10:25:47;;;;;;;15.55;5.47;;;;;;;-1.43;57.36;99480.19;5031649;28;20119;-38
2023/11/20 10:28:14;;;;;;;13.90;4.85;;;;;;;-1.58;57.15;99436.72;5022884;28;20077;-38
2023/11/20 10:30:45;;;;;;;10.77;4.68;;;;;;;-1.41;57.31;99470.84;5029275;28;20041;-38
2023/11/20 10:33:20;;;;;;;12.63;4.60;;;;;;;-1.37;57.13;99464.97;5002433;28;20037;-37
2023/11/20 10:35:47;;;;;;;12.30;4.95;;;;;;;-1.36;56.95;99462.41;5006115;28;20037;-38
2023/11/20 10:38:13;;;;;;;10.07;3.97;;;;;;;-1.52;57.13;99427.44;5032954;28;20052;-37
2023/11/20 10:40:48;;;;;;;13.13;4.93;;;;;;;-1.31;56.84;99452.28;5034865;28;20508;-38
2023/11/20 10:43:15;;;;;;;14.82;5.18;;;;;;;-1.35;56.97;99436.09;5027751;28;20040;-37
2023/11/20 10:45:41;;;;;;;15.38;4.45;;;;;;;-1.29;56.91;99442.94;5031026;28;20095;-39
2023/11/20 10:48:07;;;;;;;15.70;4.55;;;;;;;-1.64;56.88;99371.25;5027187;28;20049;-37
2023/11/20 10:50:35;;;;;;;11.15;4.32;;;;;;;-1.31;57.20;99437.00;5028389;28;20152;-38
2023/11/20 10:53:06;;;;;;;11.50;4.65;;;;;;;-1.31;57.30;99437.81;5030588;28;20421;-37
2023/11/20 10:55:39;;;;;;;12.18;4.80;;;;;;;-1.37;57.28;99431.81;5027536;28;20767;-38
2023/11/20 10:58:08;;;;;;;13.48;4.90;;;;;;;-1.40;57.29;99430.09;5023778;28;20064;-38
2023/11/20 11:00:34;;;;;;;9.80;4.00;;;;;;;-1.38;57.24;99436.06;5014060;28;20076;-38
2023/11/20 11:03:01;;;;;;;11.43;4.78;;;;;;;-1.52;57.17;99414.69;5031151;28;20307;-38
2023/11/20 11:05:27;;;;;;;18.10;7.43;;;;;;;-1.41;57.46;99428.38;5029326;28;20532;-37
2023/11/20 11:07:56;;;;;;;12.85;4.97;;;;;;;-1.42;57.30;99419.03;5011756;28;20097;-39
2023/11/20 11:10:22;;;;;;;17.77;5.07;;;;;;;-1.38;57.49;99422.47;5033708;28;20111;-39
2023/11/20 11:12:49;;;;;;;12.68;4.95;;;;;;;-1.58;57.70;99380.66;4999788;28;20136;-40
2023/11/20 11:15:15;;;;;;;18.00;4.18;;;;;;;-1.52;57.63;99389.22;5008948;28;20049;-38
2023/11/20 11:17:48;;;;;;;11.05;4.72;;;;;;;-1.41;57.77;99407.13;5024497;28;20375;-37
2023/11/20 11:20:18;;;;;;;15.20;5.55;;;;;;;-1.47;57.71;99404.53;5030819;28;20529;-37
2023/11/20 11:22:56;;;;;;;10.20;5.50;;;;;;;-1.49;58.13;99396.00;5027969;28;20539;-38
2023/11/20 11:25:25;;;;;;;11.85;5.80;;;;;;;-1.50;58.51;99390.06;5015810;28;20053;-38
2023/11/20 11:27:57;;;;;;;11.77;4.80;;;;;;;-1.51;58.39;99388.34;5031621;28;20049;-38